Aviation Digital Data Service (ADDS)

Output produced by TAFs form (1452 UTC 26 November 2014)
found at http://aviationweather.gov/adds/tafs/
 
KELP 261120Z 2612/2712 07007KT P6SM SKC 
     FM262000 24008KT P6SM SKC 
     FM270300 04006KT P6SM SKC